sensor_id;sensor_type;location;lat;lon;timestamp;P1;durP1;ratioP1;P2;durP2;ratioP2
23614;SDS011;11985;49.404;7.734;2023-02-15T00:01:12;70.35;;;18.13;;
23614;SDS011;11985;49.404;7.734;2023-02-15T00:06:15;110.00;;;19.20;;
23614;SDS011;11985;49.404;7.734;2023-02-15T00:11:17;143.98;;;19.73;;
23614;SDS011;11985;49.404;7.734;2023-02-15T00:16:41;161.50;;;16.23;;
23614;SDS011;11985;49.404;7.734;2023-02-15T00:21:44;108.72;;;18.20;;
23614;SDS011;11985;49.404;7.734;2023-02-15T00:26:46;73.93;;;16.73;;
23614;SDS011;11985;49.404;7.734;2023-02-15T00:31:50;90.35;;;15.80;;
23614;SDS011;11985;49.404;7.734;2023-02-15T00:36:52;68.93;;;17.42;;
23614;SDS011;11985;49.404;7.734;2023-02-15T00:41:53;50.00;;;17.52;;
23614;SDS011;11985;49.404;7.734;2023-02-15T00:46:56;96.03;;;17.83;;
23614;SDS011;11985;49.404;7.734;2023-02-15T00:51:58;48.92;;;17.95;;
23614;SDS011;11985;49.404;7.734;2023-02-15T00:56:59;52.80;;;17.73;;
23614;SDS011;11985;49.404;7.734;2023-02-15T01:02:02;92.70;;;19.40;;
23614;SDS011;11985;49.404;7.734;2023-02-15T01:07:04;69.28;;;18.13;;
23614;SDS011;11985;49.404;7.734;2023-02-15T01:12:05;64.40;;;16.70;;
23614;SDS011;11985;49.404;7.734;2023-02-15T01:17:10;53.38;;;16.98;;
23614;SDS011;11985;49.404;7.734;2023-02-15T01:22:11;118.63;;;17.08;;
23614;SDS011;11985;49.404;7.734;2023-02-15T01:27:13;48.63;;;17.90;;
23614;SDS011;11985;49.404;7.734;2023-02-15T01:32:15;50.22;;;17.65;;
23614;SDS011;11985;49.404;7.734;2023-02-15T01:37:17;49.30;;;18.00;;
23614;SDS011;11985;49.404;7.734;2023-02-15T01:42:20;138.25;;;17.65;;
23614;SDS011;11985;49.404;7.734;2023-02-15T01:47:25;96.88;;;17.60;;
23614;SDS011;11985;49.404;7.734;2023-02-15T01:52:34;62.60;;;16.98;;
23614;SDS011;11985;49.404;7.734;2023-02-15T01:57:39;158.98;;;17.13;;
23614;SDS011;11985;49.404;7.734;2023-02-15T02:02:44;56.57;;;18.90;;
23614;SDS011;11985;49.404;7.734;2023-02-15T02:07:48;100.05;;;15.98;;
23614;SDS011;11985;49.404;7.734;2023-02-15T02:12:54;45.72;;;17.83;;
23614;SDS011;11985;49.404;7.734;2023-02-15T02:18:03;53.88;;;17.20;;
23614;SDS011;11985;49.404;7.734;2023-02-15T02:23:16;129.88;;;17.38;;
23614;SDS011;11985;49.404;7.734;2023-02-15T02:28:30;99.35;;;17.10;;
23614;SDS011;11985;49.404;7.734;2023-02-15T02:33:48;94.75;;;17.83;;
23614;SDS011;11985;49.404;7.734;2023-02-15T02:39:07;212.05;;;18.60;;
23614;SDS011;11985;49.404;7.734;2023-02-15T02:44:18;107.22;;;17.42;;
23614;SDS011;11985;49.404;7.734;2023-02-15T02:49:31;50.63;;;17.02;;
23614;SDS011;11985;49.404;7.734;2023-02-15T02:54:35;299.95;;;20.00;;
23614;SDS011;11985;49.404;7.734;2023-02-15T02:59:38;66.00;;;16.13;;
23614;SDS011;11985;49.404;7.734;2023-02-15T03:04:47;243.70;;;19.42;;
23614;SDS011;11985;49.404;7.734;2023-02-15T03:09:59;154.32;;;19.85;;
23614;SDS011;11985;49.404;7.734;2023-02-15T03:15:03;155.93;;;17.73;;
23614;SDS011;11985;49.404;7.734;2023-02-15T03:20:10;194.18;;;18.20;;
23614;SDS011;11985;49.404;7.734;2023-02-15T03:25:19;97.25;;;16.50;;
23614;SDS011;11985;49.404;7.734;2023-02-15T03:30:23;70.38;;;16.80;;
23614;SDS011;11985;49.404;7.734;2023-02-15T03:35:31;46.60;;;11.70;;
23614;SDS011;11985;49.404;7.734;2023-02-15T03:40:38;86.72;;;16.30;;
23614;SDS011;11985;49.404;7.734;2023-02-15T03:46:02;40.15;;;14.57;;
23614;SDS011;11985;49.404;7.734;2023-02-15T03:51:10;98.25;;;17.25;;
23614;SDS011;11985;49.404;7.734;2023-02-15T03:56:34;40.53;;;16.50;;
23614;SDS011;11985;49.404;7.734;2023-02-15T04:01:38;61.92;;;16.15;;
23614;SDS011;11985;49.404;7.734;2023-02-15T04:06:59;41.75;;;15.50;;
23614;SDS011;11985;49.404;7.734;2023-02-15T04:12:01;42.45;;;16.00;;
23614;SDS011;11985;49.404;7.734;2023-02-15T04:17:04;40.42;;;15.52;;
23614;SDS011;11985;49.404;7.734;2023-02-15T04:22:07;57.37;;;11.47;;
23614;SDS011;11985;49.404;7.734;2023-02-15T04:27:27;41.92;;;16.08;;
23614;SDS011;11985;49.404;7.734;2023-02-15T04:32:28;39.72;;;15.25;;
23614;SDS011;11985;49.404;7.734;2023-02-15T04:37:31;112.70;;;14.77;;
23614;SDS011;11985;49.404;7.734;2023-02-15T04:42:33;90.57;;;14.75;;
23614;SDS011;11985;49.404;7.734;2023-02-15T04:47:34;42.90;;;15.98;;
23614;SDS011;11985;49.404;7.734;2023-02-15T04:52:37;49.75;;;14.70;;
23614;SDS011;11985;49.404;7.734;2023-02-15T04:57:39;43.63;;;16.02;;
23614;SDS011;11985;49.404;7.734;2023-02-15T05:02:40;45.58;;;15.88;;
23614;SDS011;11985;49.404;7.734;2023-02-15T05:07:43;37.63;;;14.95;;
23614;SDS011;11985;49.404;7.734;2023-02-15T05:12:45;44.85;;;16.27;;
23614;SDS011;11985;49.404;7.734;2023-02-15T05:17:46;43.20;;;14.93;;
23614;SDS011;11985;49.404;7.734;2023-02-15T05:22:50;73.72;;;15.65;;
23614;SDS011;11985;49.404;7.734;2023-02-15T05:27:54;36.50;;;15.70;;
23614;SDS011;11985;49.404;7.734;2023-02-15T05:33:13;31.15;;;13.05;;
23614;SDS011;11985;49.404;7.734;2023-02-15T05:38:16;31.25;;;13.52;;
23614;SDS011;11985;49.404;7.734;2023-02-15T05:43:17;30.70;;;13.00;;
23614;SDS011;11985;49.404;7.734;2023-02-15T05:48:20;67.47;;;15.18;;
23614;SDS011;11985;49.404;7.734;2023-02-15T05:53:24;83.18;;;15.00;;
23614;SDS011;11985;49.404;7.734;2023-02-15T05:58:26;86.28;;;14.25;;
23614;SDS011;11985;49.404;7.734;2023-02-15T06:03:28;40.65;;;13.57;;
23614;SDS011;11985;49.404;7.734;2023-02-15T06:08:31;27.88;;;11.77;;
23614;SDS011;11985;49.404;7.734;2023-02-15T06:13:34;34.50;;;13.90;;
23614;SDS011;11985;49.404;7.734;2023-02-15T06:18:36;32.80;;;13.48;;
23614;SDS011;11985;49.404;7.734;2023-02-15T06:23:39;33.60;;;12.52;;
23614;SDS011;11985;49.404;7.734;2023-02-15T06:28:40;62.05;;;13.27;;
23614;SDS011;11985;49.404;7.734;2023-02-15T06:33:42;30.55;;;13.80;;
23614;SDS011;11985;49.404;7.734;2023-02-15T06:38:45;28.30;;;12.45;;
23614;SDS011;11985;49.404;7.734;2023-02-15T06:43:46;30.70;;;13.73;;
23614;SDS011;11985;49.404;7.734;2023-02-15T06:48:47;31.73;;;11.65;;
23614;SDS011;11985;49.404;7.734;2023-02-15T06:53:50;28.50;;;12.15;;
23614;SDS011;11985;49.404;7.734;2023-02-15T06:58:52;25.25;;;12.10;;
23614;SDS011;11985;49.404;7.734;2023-02-15T07:03:53;32.05;;;12.48;;
23614;SDS011;11985;49.404;7.734;2023-02-15T07:08:56;29.92;;;12.45;;
23614;SDS011;11985;49.404;7.734;2023-02-15T07:13:58;28.92;;;12.00;;
23614;SDS011;11985;49.404;7.734;2023-02-15T07:18:59;29.13;;;12.65;;
23614;SDS011;11985;49.404;7.734;2023-02-15T07:24:03;25.48;;;11.52;;
23614;SDS011;11985;49.404;7.734;2023-02-15T07:29:04;29.70;;;11.32;;
23614;SDS011;11985;49.404;7.734;2023-02-15T07:34:06;39.92;;;12.20;;
23614;SDS011;11985;49.404;7.734;2023-02-15T07:39:09;27.48;;;11.52;;
23614;SDS011;11985;49.404;7.734;2023-02-15T07:44:11;36.95;;;13.23;;
23614;SDS011;11985;49.404;7.734;2023-02-15T07:49:13;29.38;;;12.70;;
23614;SDS011;11985;49.404;7.734;2023-02-15T07:54:16;32.83;;;13.05;;
23614;SDS011;11985;49.404;7.734;2023-02-15T07:59:17;40.88;;;12.75;;
23614;SDS011;11985;49.404;7.734;2023-02-15T08:04:19;35.88;;;13.68;;
23614;SDS011;11985;49.404;7.734;2023-02-15T08:09:22;31.55;;;13.25;;
23614;SDS011;11985;49.404;7.734;2023-02-15T08:14:23;66.03;;;14.15;;
23614;SDS011;11985;49.404;7.734;2023-02-15T08:19:26;43.50;;;13.55;;
23614;SDS011;11985;49.404;7.734;2023-02-15T08:24:30;36.33;;;15.35;;
23614;SDS011;11985;49.404;7.734;2023-02-15T08:34:36;32.13;;;13.95;;
23614;SDS011;11985;49.404;7.734;2023-02-15T08:39:41;35.22;;;14.05;;
23614;SDS011;11985;49.404;7.734;2023-02-15T08:44:43;37.72;;;14.57;;
23614;SDS011;11985;49.404;7.734;2023-02-15T08:49:45;34.97;;;13.85;;
23614;SDS011;11985;49.404;7.734;2023-02-15T08:54:48;30.00;;;13.93;;
23614;SDS011;11985;49.404;7.734;2023-02-15T08:59:49;31.38;;;13.32;;
23614;SDS011;11985;49.404;7.734;2023-02-15T09:04:51;34.38;;;14.93;;
23614;SDS011;11985;49.404;7.734;2023-02-15T09:09:54;33.35;;;14.00;;
23614;SDS011;11985;49.404;7.734;2023-02-15T09:14:55;32.38;;;13.50;;
23614;SDS011;11985;49.404;7.734;2023-02-15T09:19:57;34.08;;;15.82;;
23614;SDS011;11985;49.404;7.734;2023-02-15T09:25:00;35.15;;;14.23;;
23614;SDS011;11985;49.404;7.734;2023-02-15T09:30:01;32.53;;;14.60;;
23614;SDS011;11985;49.404;7.734;2023-02-15T09:35:03;33.47;;;16.23;;
23614;SDS011;11985;49.404;7.734;2023-02-15T09:40:07;34.13;;;15.27;;
23614;SDS011;11985;49.404;7.734;2023-02-15T09:45:13;32.30;;;14.13;;
23614;SDS011;11985;49.404;7.734;2023-02-15T09:50:32;32.70;;;14.60;;
23614;SDS011;11985;49.404;7.734;2023-02-15T09:55:47;34.33;;;14.57;;
23614;SDS011;11985;49.404;7.734;2023-02-15T10:00:55;33.85;;;15.10;;
23614;SDS011;11985;49.404;7.734;2023-02-15T10:06:05;34.50;;;15.80;;
23614;SDS011;11985;49.404;7.734;2023-02-15T10:11:19;27.95;;;14.27;;
23614;SDS011;11985;49.404;7.734;2023-02-15T10:21:49;28.38;;;13.93;;
23614;SDS011;11985;49.404;7.734;2023-02-15T10:27:02;34.45;;;16.90;;
23614;SDS011;11985;49.404;7.734;2023-02-15T10:32:12;31.60;;;14.70;;
23614;SDS011;11985;49.404;7.734;2023-02-15T10:37:27;29.73;;;14.10;;
23614;SDS011;11985;49.404;7.734;2023-02-15T10:42:48;33.45;;;15.68;;
23614;SDS011;11985;49.404;7.734;2023-02-15T10:48:08;31.15;;;14.48;;
23614;SDS011;11985;49.404;7.734;2023-02-15T10:53:31;33.65;;;15.75;;
23614;SDS011;11985;49.404;7.734;2023-02-15T10:58:49;30.38;;;15.13;;
23614;SDS011;11985;49.404;7.734;2023-02-15T11:04:04;28.60;;;14.38;;
23614;SDS011;11985;49.404;7.734;2023-02-15T11:09:17;31.67;;;15.63;;
23614;SDS011;11985;49.404;7.734;2023-02-15T11:14:23;34.50;;;15.65;;
23614;SDS011;11985;49.404;7.734;2023-02-15T11:19:35;29.27;;;14.75;;
23614;SDS011;11985;49.404;7.734;2023-02-15T11:24:42;25.45;;;14.50;;
23614;SDS011;11985;49.404;7.734;2023-02-15T11:29:48;27.80;;;15.80;;
23614;SDS011;11985;49.404;7.734;2023-02-15T11:34:57;27.50;;;14.65;;
23614;SDS011;11985;49.404;7.734;2023-02-15T11:40:06;27.88;;;14.45;;
23614;SDS011;11985;49.404;7.734;2023-02-15T11:45:21;24.63;;;13.85;;
23614;SDS011;11985;49.404;7.734;2023-02-15T11:50:27;25.60;;;13.25;;
23614;SDS011;11985;49.404;7.734;2023-02-15T11:55:31;27.77;;;14.40;;
23614;SDS011;11985;49.404;7.734;2023-02-15T12:00:36;25.17;;;13.43;;
23614;SDS011;11985;49.404;7.734;2023-02-15T12:05:43;22.35;;;12.40;;
23614;SDS011;11985;49.404;7.734;2023-02-15T12:10:52;22.33;;;12.80;;
23614;SDS011;11985;49.404;7.734;2023-02-15T12:16:06;22.40;;;13.30;;
23614;SDS011;11985;49.404;7.734;2023-02-15T12:21:14;20.08;;;12.18;;
23614;SDS011;11985;49.404;7.734;2023-02-15T12:26:25;20.30;;;12.45;;
23614;SDS011;11985;49.404;7.734;2023-02-15T12:31:30;20.70;;;11.80;;
23614;SDS011;11985;49.404;7.734;2023-02-15T12:36:40;22.25;;;13.00;;
23614;SDS011;11985;49.404;7.734;2023-02-15T12:41:49;21.92;;;11.95;;
23614;SDS011;11985;49.404;7.734;2023-02-15T12:47:02;22.17;;;11.85;;
23614;SDS011;11985;49.404;7.734;2023-02-15T12:52:06;20.25;;;12.43;;
23614;SDS011;11985;49.404;7.734;2023-02-15T12:57:25;19.92;;;11.50;;
23614;SDS011;11985;49.404;7.734;2023-02-15T13:02:33;19.20;;;10.60;;
23614;SDS011;11985;49.404;7.734;2023-02-15T13:07:37;18.80;;;10.90;;
23614;SDS011;11985;49.404;7.734;2023-02-15T13:12:39;16.83;;;10.18;;
23614;SDS011;11985;49.404;7.734;2023-02-15T13:17:49;22.92;;;12.02;;
23614;SDS011;11985;49.404;7.734;2023-02-15T13:22:50;19.95;;;10.85;;
23614;SDS011;11985;49.404;7.734;2023-02-15T13:27:56;19.65;;;10.18;;
23614;SDS011;11985;49.404;7.734;2023-02-15T13:33:06;19.02;;;9.93;;
23614;SDS011;11985;49.404;7.734;2023-02-15T13:38:19;19.52;;;10.93;;
23614;SDS011;11985;49.404;7.734;2023-02-15T13:43:38;19.67;;;10.25;;
23614;SDS011;11985;49.404;7.734;2023-02-15T13:48:51;16.33;;;10.10;;
23614;SDS011;11985;49.404;7.734;2023-02-15T13:54:16;19.02;;;10.60;;
23614;SDS011;11985;49.404;7.734;2023-02-15T13:59:34;23.02;;;11.13;;
23614;SDS011;11985;49.404;7.734;2023-02-15T14:04:53;18.90;;;10.57;;
23614;SDS011;11985;49.404;7.734;2023-02-15T14:10:21;22.90;;;10.38;;
23614;SDS011;11985;49.404;7.734;2023-02-15T14:15:34;26.80;;;12.07;;
23614;SDS011;11985;49.404;7.734;2023-02-15T14:20:50;19.88;;;12.00;;
23614;SDS011;11985;49.404;7.734;2023-02-15T14:25:59;17.33;;;10.88;;
23614;SDS011;11985;49.404;7.734;2023-02-15T14:36:08;22.60;;;11.10;;
23614;SDS011;11985;49.404;7.734;2023-02-15T14:41:15;21.65;;;11.95;;
23614;SDS011;11985;49.404;7.734;2023-02-15T14:46:22;18.65;;;11.60;;
23614;SDS011;11985;49.404;7.734;2023-02-15T15:02:26;19.83;;;10.57;;
23614;SDS011;11985;49.404;7.734;2023-02-15T15:07:37;20.38;;;11.65;;
23614;SDS011;11985;49.404;7.734;2023-02-15T15:12:44;18.38;;;11.07;;
23614;SDS011;11985;49.404;7.734;2023-02-15T15:17:54;19.05;;;11.15;;
23614;SDS011;11985;49.404;7.734;2023-02-15T15:28:53;19.80;;;10.87;;
23614;SDS011;11985;49.404;7.734;2023-02-15T15:34:05;20.70;;;12.50;;
23614;SDS011;11985;49.404;7.734;2023-02-15T15:45:27;46.50;;;26.10;;
23614;SDS011;11985;49.404;7.734;2023-02-15T15:50:51;25.38;;;15.02;;
23614;SDS011;11985;49.404;7.734;2023-02-15T15:55:55;24.38;;;13.02;;
23614;SDS011;11985;49.404;7.734;2023-02-15T16:01:03;21.20;;;12.73;;
23614;SDS011;11985;49.404;7.734;2023-02-15T16:06:11;28.52;;;15.30;;
23614;SDS011;11985;49.404;7.734;2023-02-15T16:11:16;22.50;;;12.80;;
23614;SDS011;11985;49.404;7.734;2023-02-15T16:16:24;22.52;;;13.63;;
23614;SDS011;11985;49.404;7.734;2023-02-15T16:21:29;30.73;;;16.95;;
23614;SDS011;11985;49.404;7.734;2023-02-15T16:26:40;19.85;;;12.35;;
23614;SDS011;11985;49.404;7.734;2023-02-15T16:32:00;17.85;;;10.60;;
23614;SDS011;11985;49.404;7.734;2023-02-15T16:37:12;17.10;;;9.35;;
23614;SDS011;11985;49.404;7.734;2023-02-15T16:42:14;14.88;;;8.27;;
23614;SDS011;11985;49.404;7.734;2023-02-15T16:47:19;19.00;;;9.82;;
23614;SDS011;11985;49.404;7.734;2023-02-15T16:52:26;25.08;;;10.73;;
23614;SDS011;11985;49.404;7.734;2023-02-15T16:57:30;26.73;;;11.35;;
23614;SDS011;11985;49.404;7.734;2023-02-15T17:02:37;19.67;;;10.10;;
23614;SDS011;11985;49.404;7.734;2023-02-15T17:07:39;20.67;;;10.77;;
23614;SDS011;11985;49.404;7.734;2023-02-15T17:12:45;20.70;;;10.52;;
23614;SDS011;11985;49.404;7.734;2023-02-15T17:17:50;18.45;;;9.25;;
23614;SDS011;11985;49.404;7.734;2023-02-15T17:22:51;18.35;;;9.75;;
23614;SDS011;11985;49.404;7.734;2023-02-15T17:27:54;19.20;;;10.48;;
23614;SDS011;11985;49.404;7.734;2023-02-15T17:32:58;18.83;;;10.70;;
23614;SDS011;11985;49.404;7.734;2023-02-15T17:38:05;21.13;;;9.60;;
23614;SDS011;11985;49.404;7.734;2023-02-15T17:43:16;21.88;;;9.80;;
23614;SDS011;11985;49.404;7.734;2023-02-15T17:48:20;20.75;;;9.60;;
23614;SDS011;11985;49.404;7.734;2023-02-15T17:53:23;18.55;;;10.13;;
23614;SDS011;11985;49.404;7.734;2023-02-15T17:58:25;19.25;;;10.15;;
23614;SDS011;11985;49.404;7.734;2023-02-15T18:03:33;17.30;;;10.23;;
23614;SDS011;11985;49.404;7.734;2023-02-15T18:08:58;21.05;;;10.52;;
23614;SDS011;11985;49.404;7.734;2023-02-15T18:14:17;23.17;;;10.80;;
23614;SDS011;11985;49.404;7.734;2023-02-15T18:19:21;19.65;;;9.90;;
23614;SDS011;11985;49.404;7.734;2023-02-15T18:24:25;16.08;;;9.60;;
23614;SDS011;11985;49.404;7.734;2023-02-15T18:29:26;16.50;;;8.95;;
23614;SDS011;11985;49.404;7.734;2023-02-15T18:34:30;14.60;;;8.30;;
23614;SDS011;11985;49.404;7.734;2023-02-15T18:39:35;14.80;;;9.68;;
23614;SDS011;11985;49.404;7.734;2023-02-15T18:44:39;18.27;;;9.88;;
23614;SDS011;11985;49.404;7.734;2023-02-15T18:49:41;17.92;;;9.90;;
23614;SDS011;11985;49.404;7.734;2023-02-15T18:54:43;18.58;;;9.50;;
23614;SDS011;11985;49.404;7.734;2023-02-15T18:59:45;20.45;;;10.25;;
23614;SDS011;11985;49.404;7.734;2023-02-15T19:04:48;19.73;;;10.73;;
23614;SDS011;11985;49.404;7.734;2023-02-15T19:09:51;22.67;;;10.05;;
23614;SDS011;11985;49.404;7.734;2023-02-15T19:14:56;24.33;;;11.73;;
23614;SDS011;11985;49.404;7.734;2023-02-15T19:19:59;22.25;;;11.10;;
23614;SDS011;11985;49.404;7.734;2023-02-15T19:25:01;22.33;;;12.00;;
23614;SDS011;11985;49.404;7.734;2023-02-15T19:30:09;18.92;;;10.40;;
23614;SDS011;11985;49.404;7.734;2023-02-15T19:35:17;22.33;;;11.27;;
23614;SDS011;11985;49.404;7.734;2023-02-15T19:40:22;22.67;;;11.63;;
23614;SDS011;11985;49.404;7.734;2023-02-15T19:45:27;20.57;;;10.80;;
23614;SDS011;11985;49.404;7.734;2023-02-15T19:55:34;19.52;;;10.25;;
23614;SDS011;11985;49.404;7.734;2023-02-15T20:00:36;20.30;;;10.23;;
23614;SDS011;11985;49.404;7.734;2023-02-15T20:05:39;22.30;;;10.20;;
23614;SDS011;11985;49.404;7.734;2023-02-15T20:10:42;20.20;;;10.23;;
23614;SDS011;11985;49.404;7.734;2023-02-15T20:15:44;20.20;;;10.50;;
23614;SDS011;11985;49.404;7.734;2023-02-15T20:20:48;21.73;;;11.38;;
23614;SDS011;11985;49.404;7.734;2023-02-15T20:25:51;17.92;;;10.18;;
23614;SDS011;11985;49.404;7.734;2023-02-15T20:30:53;20.75;;;10.20;;
23614;SDS011;11985;49.404;7.734;2023-02-15T20:35:56;22.08;;;10.18;;
23614;SDS011;11985;49.404;7.734;2023-02-15T20:40:59;21.58;;;10.07;;
23614;SDS011;11985;49.404;7.734;2023-02-15T20:46:18;22.00;;;11.40;;
23614;SDS011;11985;49.404;7.734;2023-02-15T20:51:21;24.45;;;13.68;;
23614;SDS011;11985;49.404;7.734;2023-02-15T20:56:23;26.27;;;13.30;;
23614;SDS011;11985;49.404;7.734;2023-02-15T21:01:25;28.33;;;13.25;;
23614;SDS011;11985;49.404;7.734;2023-02-15T21:06:28;29.88;;;14.00;;
23614;SDS011;11985;49.404;7.734;2023-02-15T21:11:29;26.10;;;13.93;;
23614;SDS011;11985;49.404;7.734;2023-02-15T21:16:31;24.00;;;13.00;;
23614;SDS011;11985;49.404;7.734;2023-02-15T21:21:34;28.58;;;13.93;;
23614;SDS011;11985;49.404;7.734;2023-02-15T21:26:36;27.58;;;14.45;;
23614;SDS011;11985;49.404;7.734;2023-02-15T21:31:41;23.75;;;12.95;;
23614;SDS011;11985;49.404;7.734;2023-02-15T21:36:44;26.55;;;13.13;;
23614;SDS011;11985;49.404;7.734;2023-02-15T21:41:49;25.23;;;12.65;;
23614;SDS011;11985;49.404;7.734;2023-02-15T21:47:16;23.77;;;11.82;;
23614;SDS011;11985;49.404;7.734;2023-02-15T21:52:37;24.05;;;11.98;;
23614;SDS011;11985;49.404;7.734;2023-02-15T21:57:39;19.25;;;10.68;;
23614;SDS011;11985;49.404;7.734;2023-02-15T22:02:41;23.60;;;10.43;;
23614;SDS011;11985;49.404;7.734;2023-02-15T22:07:45;20.83;;;10.68;;
23614;SDS011;11985;49.404;7.734;2023-02-15T22:12:47;17.17;;;9.60;;
23614;SDS011;11985;49.404;7.734;2023-02-15T22:17:50;19.77;;;10.73;;
23614;SDS011;11985;49.404;7.734;2023-02-15T22:22:53;21.52;;;10.45;;
23614;SDS011;11985;49.404;7.734;2023-02-15T22:27:55;22.02;;;10.65;;
23614;SDS011;11985;49.404;7.734;2023-02-15T22:32:57;19.73;;;10.18;;
23614;SDS011;11985;49.404;7.734;2023-02-15T22:38:01;26.00;;;11.70;;
23614;SDS011;11985;49.404;7.734;2023-02-15T22:43:03;25.65;;;11.30;;
23614;SDS011;11985;49.404;7.734;2023-02-15T22:48:05;27.27;;;11.65;;
23614;SDS011;11985;49.404;7.734;2023-02-15T22:53:10;27.80;;;11.30;;
23614;SDS011;11985;49.404;7.734;2023-02-15T22:58:12;21.27;;;10.95;;
23614;SDS011;11985;49.404;7.734;2023-02-15T23:03:18;23.60;;;11.23;;
23614;SDS011;11985;49.404;7.734;2023-02-15T23:08:22;22.13;;;10.15;;
23614;SDS011;11985;49.404;7.734;2023-02-15T23:13:24;24.05;;;11.00;;
23614;SDS011;11985;49.404;7.734;2023-02-15T23:18:30;26.67;;;12.02;;
23614;SDS011;11985;49.404;7.734;2023-02-15T23:23:35;27.00;;;12.23;;
23614;SDS011;11985;49.404;7.734;2023-02-15T23:33:39;27.58;;;11.85;;
23614;SDS011;11985;49.404;7.734;2023-02-15T23:38:42;28.42;;;12.23;;
23614;SDS011;11985;49.404;7.734;2023-02-15T23:43:45;27.40;;;12.48;;
23614;SDS011;11985;49.404;7.734;2023-02-15T23:48:50;28.83;;;12.57;;
23614;SDS011;11985;49.404;7.734;2023-02-15T23:53:54;28.98;;;12.73;;
23614;SDS011;11985;49.404;7.734;2023-02-15T23:58:55;27.63;;;12.55;;
